Time;durP1;ratioP1;P1;durP2;ratioP2;P2;SDS_P1;SDS_P2;PMS_P1;PMS_P2;Temp;Humidity;BMP_temperature;BMP_pressure;BME280_temperature;BME280_humidity;BME280_pressure;Samples;Min_cycle;Max_cycle;Signal;HPM_P1;HPM_P2
2021/08/15 00:00:56;;;;;;;15.43;9.10;;;20.30;99.90;;;;;;4157885;28;20057;-72
2021/08/15 00:02:57;;;;;;;13.55;8.20;;;20.30;99.90;;;;;;4157766;28;20045;-72
2021/08/15 00:04:58;;;;;;;13.10;8.63;;;20.30;99.90;;;;;;4157651;28;20026;-72
2021/08/15 00:06:58;;;;;;;13.38;9.32;;;20.20;99.90;;;;;;4155661;28;20332;-72
2021/08/15 00:08:59;;;;;;;13.60;9.43;;;20.20;99.90;;;;;;4157816;28;20025;-72
2021/08/15 00:11:01;;;;;;;16.33;10.85;;;20.20;99.90;;;;;;4156337;28;20124;-72
2021/08/15 00:13:02;;;;;;;18.13;11.48;;;20.20;99.90;;;;;;4157035;28;20033;-72
2021/08/15 00:15:04;;;;;;;17.42;10.68;;;20.20;99.90;;;;;;4156897;28;20033;-72
2021/08/15 00:17:05;;;;;;;15.02;10.30;;;20.20;99.90;;;;;;4154962;28;20038;-72
2021/08/15 00:19:06;;;;;;;18.08;11.10;;;20.20;99.90;;;;;;4123991;28;20534;-72
2021/08/15 00:21:06;;;;;;;13.38;9.10;;;20.10;99.90;;;;;;4148756;28;20033;-72
2021/08/15 00:23:07;;;;;;;14.15;9.80;;;20.10;99.90;;;;;;4150380;28;20095;-72
2021/08/15 00:25:10;;;;;;;12.52;8.85;;;20.10;99.90;;;;;;4155645;28;20045;-72
2021/08/15 00:27:10;;;;;;;15.55;10.38;;;20.10;99.90;;;;;;4155628;28;20037;-72
2021/08/15 00:29:11;;;;;;;17.38;10.88;;;20.10;99.90;;;;;;4155414;28;20657;-72
2021/08/15 00:31:12;;;;;;;15.32;9.20;;;20.10;99.90;;;;;;4157642;28;20090;-72
2021/08/15 00:33:12;;;;;;;14.00;9.70;;;20.10;99.90;;;;;;4145007;28;20053;-72
2021/08/15 00:35:13;;;;;;;17.30;10.90;;;20.00;99.90;;;;;;4151520;28;20076;-71
2021/08/15 00:37:14;;;;;;;15.75;10.82;;;20.00;99.90;;;;;;4150395;28;20054;-72
2021/08/15 00:39:15;;;;;;;21.08;11.27;;;20.00;99.90;;;;;;4150506;28;20049;-72
2021/08/15 00:41:16;;;;;;;14.38;10.52;;;20.00;99.90;;;;;;4152444;28;20046;-71
2021/08/15 00:43:16;;;;;;;18.15;11.88;;;20.00;99.90;;;;;;4154321;28;20045;-72
2021/08/15 00:45:17;;;;;;;19.13;13.10;;;20.00;99.90;;;;;;4157977;28;20045;-72
2021/08/15 00:47:18;;;;;;;20.95;12.68;;;20.00;99.90;;;;;;4156563;28;20110;-72
2021/08/15 00:49:19;;;;;;;17.85;12.32;;;20.00;99.90;;;;;;4156030;28;20045;-72
2021/08/15 00:51:20;;;;;;;18.38;11.52;;;20.00;99.90;;;;;;4156239;28;20052;-72
2021/08/15 00:53:20;;;;;;;15.95;11.10;;;20.00;99.90;;;;;;4156378;28;20505;-71
2021/08/15 00:55:21;;;;;;;15.50;11.05;;;20.00;99.90;;;;;;4153066;28;20061;-71
2021/08/15 00:57:29;;;;;;;15.27;10.32;;;20.00;99.90;;;;;;4156839;28;20145;-72
2021/08/15 00:59:30;;;;;;;15.40;11.27;;;20.00;99.90;;;;;;4156822;28;20041;-72
2021/08/15 01:01:32;;;;;;;14.40;10.82;;;20.00;99.90;;;;;;4155230;28;20048;-72
2021/08/15 01:03:34;;;;;;;15.98;10.85;;;19.90;99.90;;;;;;4138614;28;20478;-71
2021/08/15 01:05:34;;;;;;;17.95;11.50;;;20.00;99.90;;;;;;4157051;28;20037;-72
2021/08/15 01:07:37;;;;;;;16.98;11.73;;;20.00;99.90;;;;;;4137269;28;20108;-72
2021/08/15 01:09:40;;;;;;;18.70;12.30;;;20.00;99.90;;;;;;4171464;28;20041;-72
2021/08/15 01:11:41;;;;;;;18.90;13.70;;;19.90;99.90;;;;;;4156787;28;20073;-72
2021/08/15 01:13:43;;;;;;;19.58;13.88;;;19.90;99.90;;;;;;4156114;28;20068;-72
2021/08/15 01:15:44;;;;;;;20.40;14.10;;;19.90;99.90;;;;;;4156668;28;20029;-71
2021/08/15 01:17:46;;;;;;;22.17;13.93;;;19.90;99.90;;;;;;4155866;28;20640;-71
2021/08/15 01:19:46;;;;;;;18.92;13.65;;;19.90;99.90;;;;;;4153786;28;20606;-72
2021/08/15 01:21:48;;;;;;;18.65;13.68;;;19.90;99.90;;;;;;4154253;28;20037;-71
2021/08/15 01:23:49;;;;;;;17.23;11.13;;;19.90;99.90;;;;;;4155894;28;20038;-72
2021/08/15 01:25:49;;;;;;;17.83;12.18;;;19.90;99.90;;;;;;4155021;28;20061;-72
2021/08/15 01:27:50;;;;;;;17.77;12.10;;;19.90;99.90;;;;;;4149616;28;20073;-72
2021/08/15 01:29:51;;;;;;;16.95;12.43;;;19.90;99.90;;;;;;4156034;28;20088;-72
2021/08/15 01:31:51;;;;;;;18.02;12.82;;;19.90;99.90;;;;;;4155270;28;20133;-72
2021/08/15 01:33:52;;;;;;;21.10;13.32;;;19.90;99.90;;;;;;4150017;28;20387;-72
2021/08/15 01:35:54;;;;;;;17.90;12.95;;;19.80;99.90;;;;;;4138016;28;20750;-72
2021/08/15 01:37:55;;;;;;;18.77;12.73;;;19.80;99.90;;;;;;4137786;28;20042;-71
2021/08/15 01:40:01;;;;;;;20.52;14.15;;;19.80;99.90;;;;;;4153426;28;20385;-71
2021/08/15 01:42:02;;;;;;;21.50;14.10;;;19.80;99.90;;;;;;4154943;28;20223;-71
2021/08/15 01:44:03;;;;;;;22.00;13.45;;;19.80;99.90;;;;;;4155220;28;20295;-72
2021/08/15 01:46:03;;;;;;;19.17;12.88;;;19.80;99.90;;;;;;4155919;28;20033;-72
2021/08/15 01:48:04;;;;;;;19.77;12.38;;;19.70;99.90;;;;;;4156234;28;20040;-72
2021/08/15 01:50:05;;;;;;;19.65;12.45;;;19.80;99.90;;;;;;4155540;28;20701;-71
2021/08/15 01:52:06;;;;;;;17.90;12.82;;;19.70;99.90;;;;;;4155388;28;20382;-72
2021/08/15 01:54:07;;;;;;;21.25;12.73;;;19.80;99.90;;;;;;4155813;28;20104;-71
2021/08/15 01:56:07;;;;;;;18.38;12.95;;;19.80;99.90;;;;;;4156113;28;20029;-71
2021/08/15 01:58:10;;;;;;;21.02;12.20;;;19.80;99.90;;;;;;4154504;28;20037;-72
2021/08/15 02:00:11;;;;;;;19.10;12.82;;;19.70;99.90;;;;;;4152325;28;20041;-72
2021/08/15 02:02:12;;;;;;;17.60;11.93;;;19.70;99.90;;;;;;4155585;28;20119;-72
2021/08/15 02:04:13;;;;;;;18.73;12.73;;;19.70;99.90;;;;;;4155453;28;20033;-72
2021/08/15 02:06:14;;;;;;;18.27;12.00;;;19.60;99.90;;;;;;4155833;28;21144;-72
2021/08/15 02:08:14;;;;;;;15.05;11.40;;;19.60;99.90;;;;;;4155572;28;20036;-71
2021/08/15 02:10:16;;;;;;;17.42;11.93;;;19.60;99.90;;;;;;4155154;28;20037;-71
2021/08/15 02:12:16;;;;;;;22.60;12.40;;;19.60;99.90;;;;;;4137465;28;20117;-72
2021/08/15 02:14:17;;;;;;;18.00;12.55;;;19.60;99.90;;;;;;4155017;28;20136;-71
2021/08/15 02:16:18;;;;;;;18.83;12.48;;;19.60;99.90;;;;;;4154933;28;20045;-72
2021/08/15 02:18:18;;;;;;;17.05;11.73;;;19.60;99.90;;;;;;4138089;28;20921;-72
2021/08/15 02:20:20;;;;;;;17.83;11.70;;;19.60;99.90;;;;;;4142022;28;20857;-71
2021/08/15 02:22:21;;;;;;;15.40;11.97;;;19.50;99.90;;;;;;4140622;28;20560;-72
2021/08/15 02:24:21;;;;;;;16.08;10.63;;;19.50;99.90;;;;;;4150256;28;20040;-71
2021/08/15 02:26:22;;;;;;;15.00;11.13;;;19.50;99.90;;;;;;4148298;28;20181;-71
2021/08/15 02:28:23;;;;;;;17.85;11.60;;;19.50;99.90;;;;;;4145974;28;20029;-72
2021/08/15 02:30:24;;;;;;;19.58;12.85;;;19.50;99.90;;;;;;4151738;28;20724;-72
2021/08/15 02:32:25;;;;;;;23.67;13.87;;;19.50;99.90;;;;;;4154741;28;20041;-72
2021/08/15 02:34:27;;;;;;;19.80;13.48;;;19.40;99.90;;;;;;4151559;28;20083;-72
2021/08/15 02:36:28;;;;;;;16.40;11.50;;;19.40;99.90;;;;;;4135149;28;20041;-72
2021/08/15 02:38:29;;;;;;;18.65;12.05;;;19.40;99.90;;;;;;4151734;28;20033;-72
2021/08/15 02:40:29;;;;;;;17.00;11.68;;;19.40;99.90;;;;;;4155263;28;20525;-72
2021/08/15 02:42:32;;;;;;;19.15;12.07;;;19.30;99.90;;;;;;4155220;28;20060;-71
2021/08/15 02:44:33;;;;;;;20.33;12.63;;;19.40;99.90;;;;;;4152887;28;20161;-72
2021/08/15 02:46:33;;;;;;;20.23;12.90;;;19.30;99.90;;;;;;4155787;28;20057;-71
2021/08/15 02:48:34;;;;;;;22.25;12.75;;;19.30;99.90;;;;;;4147374;28;20033;-72
2021/08/15 02:50:35;;;;;;;18.02;11.90;;;19.30;99.90;;;;;;4154740;28;20119;-71
2021/08/15 02:52:36;;;;;;;20.63;12.98;;;19.30;99.90;;;;;;4153551;28;20113;-72
2021/08/15 02:54:37;;;;;;;20.27;12.70;;;19.30;99.90;;;;;;4153478;28;20432;-72
2021/08/15 02:56:37;;;;;;;21.50;11.77;;;19.30;99.90;;;;;;4155206;28;20061;-72
2021/08/15 02:58:38;;;;;;;19.48;12.57;;;19.30;99.90;;;;;;4154839;28;20022;-72
2021/08/15 03:00:39;;;;;;;17.90;11.63;;;19.30;99.90;;;;;;4154359;28;20079;-72
2021/08/15 03:02:40;;;;;;;18.35;12.50;;;19.30;99.90;;;;;;4154822;28;20032;-72
2021/08/15 03:04:42;;;;;;;22.15;12.15;;;19.30;99.90;;;;;;4153188;28;20021;-72
2021/08/15 03:06:43;;;;;;;20.95;11.82;;;19.30;99.90;;;;;;4152277;28;20038;-71
2021/08/15 03:08:44;;;;;;;17.63;10.98;;;19.30;99.90;;;;;;4154568;28;20033;-72
2021/08/15 03:10:44;;;;;;;17.65;10.88;;;19.30;99.90;;;;;;4154025;28;20037;-72
2021/08/15 03:12:45;;;;;;;19.88;11.27;;;19.30;99.90;;;;;;4155160;28;20044;-72
2021/08/15 03:14:45;;;;;;;16.38;10.60;;;19.30;99.90;;;;;;4154566;28;20056;-71
2021/08/15 03:16:46;;;;;;;23.35;11.75;;;19.30;99.90;;;;;;4153443;28;20047;-71
2021/08/15 03:18:46;;;;;;;16.33;11.05;;;19.30;99.90;;;;;;4152895;28;20041;-72
2021/08/15 03:20:47;;;;;;;16.90;11.50;;;19.30;99.90;;;;;;4154000;28;20056;-72
2021/08/15 03:22:48;;;;;;;20.20;11.35;;;19.30;99.90;;;;;;4153091;28;20127;-72
2021/08/15 03:24:48;;;;;;;15.85;10.00;;;19.30;99.90;;;;;;4153754;28;20495;-71
2021/08/15 03:26:49;;;;;;;17.85;11.23;;;19.20;99.90;;;;;;4155159;28;20120;-71
2021/08/15 03:28:50;;;;;;;22.05;10.73;;;19.20;99.90;;;;;;4154961;28;20041;-72
2021/08/15 03:30:50;;;;;;;19.20;10.77;;;19.20;99.90;;;;;;4149057;28;20080;-71
2021/08/15 03:32:51;;;;;;;18.23;10.48;;;19.20;99.90;;;;;;4136810;28;20030;-71
2021/08/15 03:34:52;;;;;;;17.60;10.38;;;19.20;99.90;;;;;;4136371;28;20041;-72
2021/08/15 03:36:52;;;;;;;14.52;9.77;;;19.20;99.90;;;;;;4136044;28;20050;-72
2021/08/15 03:38:53;;;;;;;16.35;10.30;;;19.20;99.90;;;;;;4136333;28;20064;-71
2021/08/15 03:40:53;;;;;;;15.93;9.88;;;19.10;99.90;;;;;;4135427;28;20042;-72
2021/08/15 03:42:54;;;;;;;17.55;10.75;;;19.20;99.90;;;;;;4138525;28;20085;-72
2021/08/15 03:44:54;;;;;;;17.85;9.68;;;19.10;99.90;;;;;;4154242;28;20156;-71
2021/08/15 03:46:55;;;;;;;18.17;10.45;;;19.10;99.90;;;;;;4152886;28;20041;-72
2021/08/15 03:48:56;;;;;;;17.35;10.32;;;19.10;99.90;;;;;;4154353;28;20262;-72
2021/08/15 03:50:56;;;;;;;21.95;11.18;;;19.10;99.90;;;;;;4154072;28;20041;-71
2021/08/15 03:52:57;;;;;;;18.98;11.05;;;19.10;99.90;;;;;;4154620;28;20033;-71
2021/08/15 03:54:58;;;;;;;16.13;9.65;;;19.10;99.90;;;;;;4154541;28;20041;-71
2021/08/15 03:56:58;;;;;;;16.92;9.27;;;19.00;99.90;;;;;;4153283;28;20046;-71
2021/08/15 03:58:59;;;;;;;17.60;10.32;;;19.00;99.90;;;;;;4154913;28;20359;-72
2021/08/15 04:00:59;;;;;;;17.70;10.38;;;19.10;99.90;;;;;;4154154;28;20069;-72
2021/08/15 04:03:00;;;;;;;16.13;10.05;;;19.10;99.90;;;;;;4152734;28;20098;-72
2021/08/15 04:05:01;;;;;;;15.88;9.55;;;19.10;99.90;;;;;;4154787;28;20493;-71
2021/08/15 04:07:01;;;;;;;17.45;9.90;;;19.00;99.90;;;;;;4153885;28;20039;-71
2021/08/15 04:09:02;;;;;;;21.85;11.38;;;19.00;99.90;;;;;;4152025;28;20639;-72
2021/08/15 04:11:03;;;;;;;15.30;9.27;;;19.10;99.90;;;;;;4155709;28;20032;-71
2021/08/15 04:13:04;;;;;;;17.25;9.88;;;19.10;99.90;;;;;;4155593;28;20049;-72
2021/08/15 04:15:05;;;;;;;16.02;9.38;;;19.00;99.90;;;;;;4157712;28;20057;-71
2021/08/15 04:17:06;;;;;;;16.75;9.05;;;19.00;99.90;;;;;;4155017;28;20037;-72
2021/08/15 04:19:06;;;;;;;15.73;9.38;;;19.00;99.90;;;;;;4157255;28;20041;-71
2021/08/15 04:21:07;;;;;;;15.52;10.18;;;19.00;99.90;;;;;;4157123;28;20088;-72
2021/08/15 04:23:08;;;;;;;21.40;10.57;;;18.90;99.90;;;;;;4156109;28;20033;-72
2021/08/15 04:25:09;;;;;;;17.23;9.65;;;18.90;99.90;;;;;;4157119;28;20697;-71
2021/08/15 04:27:10;;;;;;;17.55;10.40;;;18.90;99.90;;;;;;4154962;28;20093;-71
2021/08/15 04:29:12;;;;;;;16.05;10.13;;;18.90;99.90;;;;;;4156088;28;20034;-71
2021/08/15 04:31:13;;;;;;;15.77;9.23;;;18.90;99.90;;;;;;4157142;28;20048;-72
2021/08/15 04:33:18;;;;;;;15.85;9.65;;;18.80;99.90;;;;;;4157322;28;20045;-72
2021/08/15 04:35:18;;;;;;;18.80;10.05;;;18.80;99.90;;;;;;4157317;28;20051;-71
2021/08/15 04:37:19;;;;;;;14.77;8.60;;;18.80;99.90;;;;;;4142780;28;20137;-72
2021/08/15 04:39:20;;;;;;;14.15;8.43;;;18.80;99.90;;;;;;4154091;28;20044;-71
2021/08/15 04:41:21;;;;;;;16.40;9.32;;;18.80;99.90;;;;;;4155332;28;20041;-71
2021/08/15 04:43:21;;;;;;;17.85;9.40;;;18.80;99.90;;;;;;4156995;28;20041;-71
2021/08/15 04:45:22;;;;;;;12.82;8.40;;;18.80;99.90;;;;;;4157615;28;20044;-71
2021/08/15 04:47:22;;;;;;;12.98;8.30;;;18.90;99.90;;;;;;4155484;28;20045;-72
2021/08/15 04:49:23;;;;;;;13.30;8.75;;;18.90;99.90;;;;;;4155178;28;20048;-71
2021/08/15 04:51:23;;;;;;;12.88;7.97;;;18.90;99.90;;;;;;4157624;28;20057;-71
2021/08/15 04:53:24;;;;;;;18.25;8.82;;;18.90;99.90;;;;;;4156241;28;20041;-72
2021/08/15 04:55:25;;;;;;;15.57;8.73;;;18.90;99.90;;;;;;4157265;28;20561;-72
2021/08/15 04:57:25;;;;;;;14.50;8.65;;;18.90;99.90;;;;;;4156785;28;20072;-71
2021/08/15 04:59:26;;;;;;;16.00;8.48;;;18.90;99.90;;;;;;4157599;28;20048;-71
2021/08/15 05:01:27;;;;;;;13.13;8.68;;;18.90;99.90;;;;;;4156086;28;20105;-71
2021/08/15 05:03:27;;;;;;;14.05;8.77;;;18.90;99.90;;;;;;4157301;28;20034;-72
2021/08/15 05:05:28;;;;;;;15.70;7.75;;;18.90;99.90;;;;;;4157503;28;20030;-72
2021/08/15 05:07:29;;;;;;;17.27;8.80;;;18.90;99.90;;;;;;4156586;28;20037;-71
2021/08/15 05:09:30;;;;;;;13.00;7.75;;;19.00;99.90;;;;;;4157494;28;20037;-71
2021/08/15 05:11:30;;;;;;;14.48;8.18;;;19.00;99.90;;;;;;4156703;28;20620;-72
2021/08/15 05:13:31;;;;;;;17.88;7.35;;;19.00;99.90;;;;;;4156706;28;20073;-72
2021/08/15 05:15:32;;;;;;;11.77;7.72;;;19.00;99.90;;;;;;4155588;28;20041;-71
2021/08/15 05:17:32;;;;;;;13.13;7.90;;;19.00;99.90;;;;;;4157060;28;20044;-71
2021/08/15 05:19:33;;;;;;;12.75;7.57;;;19.00;99.90;;;;;;4156679;28;20450;-72
2021/08/15 05:21:33;;;;;;;15.23;8.80;;;19.10;99.90;;;;;;4156494;28;20117;-72
2021/08/15 05:23:34;;;;;;;16.60;7.78;;;19.00;99.90;;;;;;4147216;28;20080;-72
2021/08/15 05:25:35;;;;;;;13.70;7.72;;;19.00;99.90;;;;;;4156661;28;20036;-71
2021/08/15 05:27:35;;;;;;;11.85;7.03;;;19.10;99.90;;;;;;4138956;28;20502;-72
2021/08/15 05:29:36;;;;;;;15.68;7.43;;;19.10;99.90;;;;;;4156408;28;20088;-71
2021/08/15 05:31:36;;;;;;;13.25;7.72;;;19.10;99.90;;;;;;4152035;28;20037;-71
2021/08/15 05:33:37;;;;;;;14.27;8.07;;;19.10;99.90;;;;;;4148088;28;20052;-72
2021/08/15 05:35:38;;;;;;;14.77;7.57;;;19.10;99.90;;;;;;4150296;28;20661;-73
2021/08/15 05:37:40;;;;;;;12.60;7.10;;;19.10;99.90;;;;;;4155964;28;20081;-72
2021/08/15 05:39:40;;;;;;;14.43;6.80;;;19.10;99.90;;;;;;4155091;28;20078;-72
2021/08/15 05:41:41;;;;;;;12.80;7.25;;;19.10;99.90;;;;;;4156465;28;20477;-72
2021/08/15 05:43:41;;;;;;;13.05;7.40;;;19.00;99.90;;;;;;4148888;28;20041;-72
2021/08/15 05:45:42;;;;;;;11.75;7.18;;;19.00;99.90;;;;;;4138733;28;20037;-72
2021/08/15 05:47:43;;;;;;;12.65;7.18;;;19.00;99.90;;;;;;4136678;28;20030;-72
2021/08/15 05:49:43;;;;;;;12.80;6.43;;;19.00;99.90;;;;;;4139124;28;20124;-72
2021/08/15 05:51:44;;;;;;;14.70;7.80;;;19.00;99.90;;;;;;4137736;28;20052;-72
2021/08/15 05:53:44;;;;;;;15.75;7.63;;;19.00;99.90;;;;;;4138052;28;20038;-72
2021/08/15 05:55:45;;;;;;;13.95;7.75;;;18.90;99.90;;;;;;4138587;28;20046;-72
2021/08/15 05:57:45;;;;;;;14.43;7.07;;;18.90;99.90;;;;;;4137712;28;20199;-73
2021/08/15 05:59:46;;;;;;;15.05;7.65;;;18.90;99.90;;;;;;4137406;28;20034;-72
2021/08/15 06:01:46;;;;;;;9.65;5.68;;;18.90;99.90;;;;;;4143655;28;20865;-72
2021/08/15 06:03:47;;;;;;;15.05;7.43;;;18.90;99.90;;;;;;4151635;28;20636;-72
2021/08/15 06:05:48;;;;;;;13.50;6.20;;;18.90;99.90;;;;;;4139565;28;20046;-72
2021/08/15 06:07:48;;;;;;;13.75;6.45;;;18.90;99.90;;;;;;4147863;28;20045;-72
2021/08/15 06:09:49;;;;;;;11.23;6.82;;;18.90;99.90;;;;;;4145853;28;20038;-72
2021/08/15 06:11:49;;;;;;;13.05;6.75;;;18.90;99.90;;;;;;4135307;28;20547;-72
2021/08/15 06:13:51;;;;;;;13.80;7.78;;;18.90;99.90;;;;;;4151048;28;20038;-72
2021/08/15 06:15:52;;;;;;;14.38;7.70;;;18.90;99.90;;;;;;4132178;28;20061;-73
2021/08/15 06:17:52;;;;;;;12.63;6.75;;;18.90;99.90;;;;;;4151691;28;20045;-72
2021/08/15 06:19:53;;;;;;;14.75;7.65;;;18.90;99.90;;;;;;4155437;28;20057;-72
2021/08/15 06:21:54;;;;;;;11.35;6.80;;;18.90;99.90;;;;;;4156763;28;20042;-73
2021/08/15 06:23:54;;;;;;;15.55;7.40;;;18.90;99.90;;;;;;4146896;28;20695;-72
2021/08/15 06:25:55;;;;;;;15.50;6.82;;;18.90;99.90;;;;;;4136913;28;20041;-72
2021/08/15 06:27:56;;;;;;;16.90;7.60;;;18.90;99.90;;;;;;4138481;28;20049;-72
2021/08/15 06:29:56;;;;;;;15.75;7.78;;;18.90;99.90;;;;;;4139160;28;20037;-72
2021/08/15 06:31:57;;;;;;;13.60;6.63;;;19.00;99.90;;;;;;4141187;28;20501;-72
2021/08/15 06:33:58;;;;;;;22.80;7.85;;;19.00;99.90;;;;;;4149292;28;20037;-72
2021/08/15 06:35:58;;;;;;;10.95;6.00;;;19.00;99.90;;;;;;4146291;28;20025;-72
2021/08/15 06:37:59;;;;;;;12.77;6.72;;;19.10;99.90;;;;;;4146688;28;20443;-72
2021/08/15 06:39:59;;;;;;;13.77;6.18;;;19.10;99.90;;;;;;4147308;28;20850;-72
2021/08/15 06:42:00;;;;;;;11.00;6.40;;;19.20;99.90;;;;;;4142036;28;20110;-72
2021/08/15 06:44:01;;;;;;;13.75;5.97;;;19.10;99.90;;;;;;4139689;28;20359;-72
2021/08/15 06:46:01;;;;;;;10.00;5.80;;;19.20;99.90;;;;;;4137803;28;20030;-72
2021/08/15 06:48:03;;;;;;;10.98;5.75;;;19.20;99.90;;;;;;4137809;28;20045;-72
2021/08/15 06:50:05;;;;;;;13.32;6.32;;;19.30;99.90;;;;;;4152993;28;20050;-72
2021/08/15 06:52:06;;;;;;;11.63;6.25;;;19.30;99.90;;;;;;4155587;28;20033;-72
2021/08/15 06:54:06;;;;;;;10.20;5.88;;;19.40;99.90;;;;;;4142884;28;20847;-71
2021/08/15 06:56:09;;;;;;;12.10;6.00;;;19.40;99.90;;;;;;4137239;28;20121;-72
2021/08/15 06:58:10;;;;;;;9.07;5.20;;;19.40;99.90;;;;;;4141070;28;20393;-72
2021/08/15 07:00:11;;;;;;;10.25;5.40;;;19.50;99.90;;;;;;4155488;28;20045;-72
2021/08/15 07:02:11;;;;;;;10.35;5.60;;;19.50;99.90;;;;;;4156454;28;20033;-72
2021/08/15 07:04:12;;;;;;;11.48;5.57;;;19.60;99.90;;;;;;4157368;28;20140;-72
2021/08/15 07:06:13;;;;;;;11.68;5.57;;;19.60;99.90;;;;;;4156260;28;20037;-72
2021/08/15 07:08:13;;;;;;;11.40;5.25;;;19.70;99.90;;;;;;4151950;28;20050;-72
2021/08/15 07:10:14;;;;;;;11.15;5.93;;;19.70;99.90;;;;;;4146660;28;20046;-72
2021/08/15 07:12:15;;;;;;;9.52;5.45;;;19.70;99.90;;;;;;4152163;28;20747;-72
2021/08/15 07:14:15;;;;;;;10.30;5.53;;;19.70;99.90;;;;;;4154330;28;20045;-72
2021/08/15 07:16:16;;;;;;;7.95;4.30;;;19.70;99.90;;;;;;4156282;28;20057;-72
2021/08/15 07:18:18;;;;;;;9.57;5.05;;;19.80;99.90;;;;;;4154675;28;20068;-72
2021/08/15 07:20:18;;;;;;;12.38;5.25;;;19.90;99.90;;;;;;4159232;28;20029;-73
2021/08/15 07:22:19;;;;;;;11.95;5.68;;;19.90;99.90;;;;;;4151818;28;20416;-72
2021/08/15 07:24:20;;;;;;;11.65;6.00;;;20.00;99.90;;;;;;4156481;28;20038;-72
2021/08/15 07:26:20;;;;;;;11.25;5.32;;;20.00;99.90;;;;;;4155688;28;20030;-72
2021/08/15 07:28:21;;;;;;;12.80;6.07;;;20.10;99.90;;;;;;4144938;28;20537;-72
2021/08/15 07:30:21;;;;;;;9.13;4.90;;;20.10;99.90;;;;;;4158956;28;20037;-72
2021/08/15 07:32:22;;;;;;;7.53;4.82;;;20.20;99.90;;;;;;4127501;28;20117;-72
2021/08/15 07:34:22;;;;;;;8.88;4.53;;;20.20;99.90;;;;;;4141143;28;20125;-72
2021/08/15 07:36:24;;;;;;;15.80;5.35;;;20.30;99.90;;;;;;4142348;28;20030;-72
2021/08/15 07:38:25;;;;;;;11.13;5.85;;;20.30;99.90;;;;;;4140540;28;20053;-72
2021/08/15 07:40:26;;;;;;;7.63;4.72;;;20.40;99.90;;;;;;4142639;28;20030;-73
2021/08/15 07:42:27;;;;;;;7.77;4.70;;;20.40;99.90;;;;;;4124477;28;20549;-72
2021/08/15 07:44:28;;;;;;;12.45;5.07;;;20.50;99.90;;;;;;4143007;28;20080;-72
2021/08/15 07:46:29;;;;;;;12.23;5.20;;;20.60;99.90;;;;;;4145445;28;20030;-72
2021/08/15 07:48:29;;;;;;;9.10;4.97;;;20.60;99.90;;;;;;4153742;28;20041;-72
2021/08/15 07:50:36;;;;;;;10.65;5.40;;;20.70;99.90;;;;;;4145484;28;20386;-72
2021/08/15 07:52:36;;;;;;;8.35;5.00;;;20.70;99.90;;;;;;4155858;28;20466;-73
2021/08/15 07:54:37;;;;;;;9.50;4.90;;;20.70;99.90;;;;;;4161021;28;20058;-73
2021/08/15 07:56:37;;;;;;;9.77;5.25;;;20.80;99.90;;;;;;4161957;28;20048;-72
2021/08/15 07:58:38;;;;;;;8.30;4.72;;;20.80;99.90;;;;;;4160376;28;20095;-72
2021/08/15 08:00:39;;;;;;;12.10;5.05;;;20.90;99.90;;;;;;4147801;28;20033;-73
2021/08/15 08:02:39;;;;;;;13.93;5.20;;;20.90;99.90;;;;;;4158161;28;20029;-72
2021/08/15 08:04:40;;;;;;;9.07;4.30;;;21.00;99.90;;;;;;4147544;28;20109;-73
2021/08/15 08:06:41;;;;;;;8.13;4.50;;;21.00;99.90;;;;;;4145535;28;20458;-72
2021/08/15 08:08:41;;;;;;;9.48;4.47;;;21.00;99.90;;;;;;4143845;28;20058;-72
2021/08/15 08:10:42;;;;;;;9.88;4.88;;;21.10;99.90;;;;;;4143603;28;20119;-73
2021/08/15 08:12:45;;;;;;;8.77;4.68;;;21.10;99.90;;;;;;4166199;28;20102;-73
2021/08/15 08:14:46;;;;;;;8.85;4.40;;;21.20;99.90;;;;;;4142427;28;20023;-72
2021/08/15 08:16:47;;;;;;;6.65;4.07;;;21.20;99.90;;;;;;4154881;28;20030;-72
2021/08/15 08:18:49;;;;;;;6.97;3.75;;;21.30;99.90;;;;;;4133185;28;20030;-73
2021/08/15 08:20:50;;;;;;;10.10;4.45;;;21.30;99.90;;;;;;4160913;28;20104;-73
2021/08/15 08:22:51;;;;;;;9.20;4.50;;;21.30;99.90;;;;;;4160006;28;20025;-73
2021/08/15 08:24:51;;;;;;;9.80;4.57;;;21.40;99.90;;;;;;4157022;28;20060;-73
2021/08/15 08:26:52;;;;;;;7.70;4.15;;;21.40;99.90;;;;;;4156051;28;20075;-72
2021/08/15 08:28:52;;;;;;;12.05;5.05;;;21.50;99.90;;;;;;4161211;28;20041;-73
2021/08/15 08:30:53;;;;;;;9.90;4.95;;;21.50;99.90;;;;;;4161592;28;20489;-73
2021/08/15 08:32:53;;;;;;;13.48;4.43;;;21.50;99.90;;;;;;4139506;28;20029;-72
2021/08/15 08:34:54;;;;;;;12.00;4.65;;;21.60;99.90;;;;;;4161827;28;20053;-72
2021/08/15 08:36:55;;;;;;;9.13;4.22;;;21.60;99.90;;;;;;4160619;28;20117;-73
2021/08/15 08:38:55;;;;;;;11.45;4.80;;;21.70;99.90;;;;;;4152675;28;20144;-72
2021/08/15 08:40:58;;;;;;;10.93;4.53;;;21.70;99.90;;;;;;4145225;28;20049;-72
2021/08/15 08:42:59;;;;;;;;;;;21.80;99.90;;;;;;4148563;28;20566;-72
2021/08/15 08:45:01;;;;;;;7.72;4.13;;;21.80;99.90;;;;;;4157434;28;20373;-72
2021/08/15 08:47:04;;;;;;;8.10;3.72;;;21.90;99.90;;;;;;4144289;28;20034;-72
2021/08/15 08:49:05;;;;;;;9.57;4.30;;;21.90;99.90;;;;;;4155658;28;20048;-73
2021/08/15 08:51:06;;;;;;;10.05;4.35;;;22.00;99.90;;;;;;4149297;28;20030;-72
2021/08/15 08:53:07;;;;;;;8.68;4.75;;;22.10;99.90;;;;;;4158479;28;20044;-72
2021/08/15 08:55:08;;;;;;;9.35;4.53;;;22.20;99.90;;;;;;4144107;28;20131;-73
2021/08/15 08:57:09;;;;;;;8.15;4.07;;;22.30;99.90;;;;;;4154229;28;20121;-73
2021/08/15 08:59:10;;;;;;;8.18;4.05;;;22.40;99.90;;;;;;4150605;28;20044;-73
2021/08/15 09:01:14;;;;;;;9.63;4.15;;;22.50;99.90;;;;;;4150076;28;20553;-73
2021/08/15 09:03:14;;;;;;;10.27;4.20;;;22.60;99.90;;;;;;4158837;28;20086;-73
2021/08/15 09:05:32;;;;;;;9.27;4.32;;;22.70;99.90;;;;;;4172826;28;20635;-73
2021/08/15 09:07:34;;;;;;;7.85;3.45;;;22.80;99.90;;;;;;4166399;28;20038;-73
2021/08/15 09:09:38;;;;;;;6.82;3.72;;;23.00;99.90;;;;;;4157874;28;20390;-73
2021/08/15 09:11:40;;;;;;;8.40;3.75;;;23.10;99.90;;;;;;4149773;28;20052;-73
2021/08/15 09:13:43;;;;;;;8.88;3.80;;;23.20;99.90;;;;;;4162624;28;20021;-73
2021/08/15 09:15:55;;;;;;;8.63;3.92;;;23.30;99.90;;;;;;4158954;28;20038;-73
2021/08/15 09:17:55;;;;;;;7.53;3.67;;;23.40;99.90;;;;;;4132362;28;20061;-73
2021/08/15 09:19:58;;;;;;;9.02;4.00;;;23.50;99.90;;;;;;4148711;28;20034;-73
2021/08/15 09:22:13;;;;;;;;;;;23.60;99.90;;;;;;4157187;28;20037;-73
2021/08/15 09:24:13;;;;;;;6.25;2.90;;;23.60;99.90;;;;;;4186776;28;20120;-73
2021/08/15 09:26:21;;;;;;;7.15;4.10;;;23.70;99.90;;;;;;4155827;28;20503;-72
2021/08/15 09:28:33;;;;;;;6.85;3.13;;;23.70;99.90;;;;;;4158553;28;20037;-73
2021/08/15 09:30:34;;;;;;;8.52;4.05;;;23.70;99.90;;;;;;4160880;28;20037;-73
2021/08/15 09:32:36;;;;;;;8.10;3.35;;;23.80;99.90;;;;;;4144864;28;20044;-73
2021/08/15 09:34:37;;;;;;;;;;;23.80;99.90;;;;;;4163953;28;20396;-73
2021/08/15 09:36:42;;;;;;;8.88;3.90;;;23.90;99.90;;;;;;4148369;28;19992;-73
2021/08/15 09:38:44;;;;;;;5.60;3.30;;;23.90;99.90;;;;;;4149899;28;20107;-73
2021/08/15 09:40:51;;;;;;;6.15;3.63;;;23.90;99.90;;;;;;4149244;28;20045;-73
2021/08/15 09:42:52;;;;;;;7.90;3.38;;;24.00;99.90;;;;;;4150025;28;20670;-73
2021/08/15 09:44:53;;;;;;;7.40;3.85;;;24.00;99.90;;;;;;4153153;28;20040;-73
2021/08/15 09:46:57;;;;;;;7.40;3.42;;;24.10;99.90;;;;;;4157300;28;20022;-73
2021/08/15 09:49:13;;;;;;;6.15;3.67;;;24.10;99.90;;;;;;4155059;28;20029;-73
2021/08/15 09:51:17;;;;;;;5.80;3.10;;;24.20;99.90;;;;;;4138419;28;20085;-72
2021/08/15 09:53:25;;;;;;;6.60;3.22;;;24.30;99.90;;;;;;4160440;28;20747;-72
2021/08/15 09:55:44;;;;;;;5.78;3.05;;;24.30;99.90;;;;;;4160035;28;20049;-72
2021/08/15 09:57:45;;;;;;;7.13;3.55;;;24.40;99.90;;;;;;4147443;28;20049;-74
2021/08/15 09:59:45;;;;;;;9.98;3.75;;;24.40;99.90;;;;;;4154321;28;20374;-72
2021/08/15 10:01:54;;;;;;;4.78;2.97;;;24.50;99.90;;;;;;4152689;28;20100;-72
2021/08/15 10:03:54;;;;;;;6.60;3.08;;;24.50;99.90;;;;;;4164009;28;20531;-71
2021/08/15 10:05:56;;;;;;;6.03;3.22;;;24.60;99.90;;;;;;4163869;28;20045;-72
2021/08/15 10:08:00;;;;;;;7.43;3.00;;;24.70;99.90;;;;;;4144417;28;20030;-72
2021/08/15 10:10:01;;;;;;;8.18;3.67;;;24.80;99.90;;;;;;4157363;28;20037;-72
2021/08/15 10:12:01;;;;;;;8.27;3.33;;;24.90;99.90;;;;;;4154040;28;20030;-72
2021/08/15 10:14:03;;;;;;;9.20;3.38;;;24.90;99.90;;;;;;4155608;28;20129;-72
2021/08/15 10:16:08;;;;;;;5.88;3.38;;;25.00;99.90;;;;;;4171153;28;20041;-72
2021/08/15 10:18:13;;;;;;;5.82;3.00;;;25.00;99.90;;;;;;4160008;28;20083;-71
2021/08/15 10:20:20;;;;;;;5.85;2.88;;;25.10;99.90;;;;;;4155649;28;20061;-72
2021/08/15 10:22:23;;;;;;;5.00;2.67;;;25.10;99.90;;;;;;4154286;28;20042;-72